sensor_id;sensor_type;location;lat;lon;timestamp;temperature;humidity
17639;DHT22;8938;53.546;9.954;2023-09-18T00:00:49;23.90;99.90
17639;DHT22;8938;53.546;9.954;2023-09-18T00:03:18;24.00;99.90
17639;DHT22;8938;53.546;9.954;2023-09-18T00:05:46;24.10;99.90
17639;DHT22;8938;53.546;9.954;2023-09-18T00:08:13;24.00;99.90
17639;DHT22;8938;53.546;9.954;2023-09-18T00:10:39;23.90;99.90
17639;DHT22;8938;53.546;9.954;2023-09-18T00:13:04;23.90;99.90
17639;DHT22;8938;53.546;9.954;2023-09-18T00:15:30;23.90;99.90
17639;DHT22;8938;53.546;9.954;2023-09-18T00:17:56;23.90;99.90
17639;DHT22;8938;53.546;9.954;2023-09-18T00:20:21;23.90;99.90
17639;DHT22;8938;53.546;9.954;2023-09-18T00:22:54;23.90;99.90
17639;DHT22;8938;53.546;9.954;2023-09-18T00:25:21;23.90;99.90
17639;DHT22;8938;53.546;9.954;2023-09-18T00:27:46;23.80;99.90
17639;DHT22;8938;53.546;9.954;2023-09-18T00:30:12;23.80;99.90
17639;DHT22;8938;53.546;9.954;2023-09-18T00:32:38;23.80;99.90
17639;DHT22;8938;53.546;9.954;2023-09-18T00:35:03;23.80;99.90
17639;DHT22;8938;53.546;9.954;2023-09-18T00:37:29;23.80;99.90
17639;DHT22;8938;53.546;9.954;2023-09-18T00:39:55;23.80;99.90
17639;DHT22;8938;53.546;9.954;2023-09-18T00:42:20;23.80;99.90
17639;DHT22;8938;53.546;9.954;2023-09-18T00:44:48;23.90;99.90
17639;DHT22;8938;53.546;9.954;2023-09-18T00:47:14;23.80;99.90
17639;DHT22;8938;53.546;9.954;2023-09-18T00:49:41;23.70;99.90
17639;DHT22;8938;53.546;9.954;2023-09-18T00:52:09;23.70;99.90
17639;DHT22;8938;53.546;9.954;2023-09-18T00:54:37;23.70;99.90
17639;DHT22;8938;53.546;9.954;2023-09-18T00:57:04;23.70;99.90
17639;DHT22;8938;53.546;9.954;2023-09-18T00:59:30;23.70;99.90
17639;DHT22;8938;53.546;9.954;2023-09-18T01:01:56;23.70;99.90
17639;DHT22;8938;53.546;9.954;2023-09-18T01:04:22;23.70;99.90
17639;DHT22;8938;53.546;9.954;2023-09-18T01:06:50;23.60;99.90
17639;DHT22;8938;53.546;9.954;2023-09-18T01:09:18;23.60;99.90
17639;DHT22;8938;53.546;9.954;2023-09-18T01:11:54;23.60;99.90
17639;DHT22;8938;53.546;9.954;2023-09-18T01:14:33;23.50;99.90
17639;DHT22;8938;53.546;9.954;2023-09-18T01:17:00;23.50;99.90
17639;DHT22;8938;53.546;9.954;2023-09-18T01:19:37;23.50;99.90
17639;DHT22;8938;53.546;9.954;2023-09-18T01:22:04;23.50;99.90
17639;DHT22;8938;53.546;9.954;2023-09-18T01:24:34;23.50;99.90
17639;DHT22;8938;53.546;9.954;2023-09-18T01:27:00;23.50;99.90
17639;DHT22;8938;53.546;9.954;2023-09-18T01:29:26;23.50;99.90
17639;DHT22;8938;53.546;9.954;2023-09-18T01:31:51;23.40;99.90
17639;DHT22;8938;53.546;9.954;2023-09-18T01:34:20;23.60;99.90
17639;DHT22;8938;53.546;9.954;2023-09-18T01:36:47;23.50;99.90
17639;DHT22;8938;53.546;9.954;2023-09-18T01:39:13;23.50;99.90
17639;DHT22;8938;53.546;9.954;2023-09-18T01:41:41;23.50;99.90
17639;DHT22;8938;53.546;9.954;2023-09-18T01:44:06;23.50;99.90
17639;DHT22;8938;53.546;9.954;2023-09-18T01:46:33;23.50;99.90
17639;DHT22;8938;53.546;9.954;2023-09-18T01:49:04;23.40;99.90
17639;DHT22;8938;53.546;9.954;2023-09-18T01:51:30;23.40;99.90
17639;DHT22;8938;53.546;9.954;2023-09-18T01:53:56;23.40;99.90
17639;DHT22;8938;53.546;9.954;2023-09-18T01:56:22;23.40;99.90
17639;DHT22;8938;53.546;9.954;2023-09-18T01:58:49;23.30;99.90
17639;DHT22;8938;53.546;9.954;2023-09-18T02:01:14;23.30;99.90
17639;DHT22;8938;53.546;9.954;2023-09-18T02:03:40;23.30;99.90
17639;DHT22;8938;53.546;9.954;2023-09-18T02:06:09;23.20;99.90
17639;DHT22;8938;53.546;9.954;2023-09-18T02:08:35;23.20;99.90
17639;DHT22;8938;53.546;9.954;2023-09-18T02:11:00;23.20;99.90
17639;DHT22;8938;53.546;9.954;2023-09-18T02:13:26;23.10;99.90
17639;DHT22;8938;53.546;9.954;2023-09-18T02:15:52;23.10;99.90
17639;DHT22;8938;53.546;9.954;2023-09-18T02:18:18;23.00;99.90
17639;DHT22;8938;53.546;9.954;2023-09-18T02:20:44;23.00;99.90
17639;DHT22;8938;53.546;9.954;2023-09-18T02:23:12;23.00;99.90
17639;DHT22;8938;53.546;9.954;2023-09-18T02:25:38;23.00;99.90
17639;DHT22;8938;53.546;9.954;2023-09-18T02:28:06;23.00;99.90
17639;DHT22;8938;53.546;9.954;2023-09-18T02:30:31;23.00;99.90
17639;DHT22;8938;53.546;9.954;2023-09-18T02:32:57;23.10;99.90
17639;DHT22;8938;53.546;9.954;2023-09-18T02:35:22;23.10;99.90
17639;DHT22;8938;53.546;9.954;2023-09-18T02:37:48;22.90;99.90
17639;DHT22;8938;53.546;9.954;2023-09-18T02:40:13;23.00;99.90
17639;DHT22;8938;53.546;9.954;2023-09-18T02:42:39;22.90;99.90
17639;DHT22;8938;53.546;9.954;2023-09-18T02:45:05;23.00;99.90
17639;DHT22;8938;53.546;9.954;2023-09-18T02:47:31;22.90;99.90
17639;DHT22;8938;53.546;9.954;2023-09-18T02:49:57;22.90;99.90
17639;DHT22;8938;53.546;9.954;2023-09-18T02:52:23;22.90;99.90
17639;DHT22;8938;53.546;9.954;2023-09-18T02:54:48;22.80;99.90
17639;DHT22;8938;53.546;9.954;2023-09-18T02:57:14;22.90;99.90
17639;DHT22;8938;53.546;9.954;2023-09-18T02:59:39;22.90;99.90
17639;DHT22;8938;53.546;9.954;2023-09-18T03:02:05;23.00;99.90
17639;DHT22;8938;53.546;9.954;2023-09-18T03:04:31;22.90;99.90
17639;DHT22;8938;53.546;9.954;2023-09-18T03:06:57;22.90;99.90
17639;DHT22;8938;53.546;9.954;2023-09-18T03:09:22;22.90;99.90
17639;DHT22;8938;53.546;9.954;2023-09-18T03:11:48;22.90;99.90
17639;DHT22;8938;53.546;9.954;2023-09-18T03:14:13;22.90;99.90
17639;DHT22;8938;53.546;9.954;2023-09-18T03:16:39;22.90;99.90
17639;DHT22;8938;53.546;9.954;2023-09-18T03:19:04;22.90;99.90
17639;DHT22;8938;53.546;9.954;2023-09-18T03:21:30;22.90;99.90
17639;DHT22;8938;53.546;9.954;2023-09-18T03:23:59;22.90;99.90
17639;DHT22;8938;53.546;9.954;2023-09-18T03:26:24;22.80;99.90
17639;DHT22;8938;53.546;9.954;2023-09-18T03:28:50;22.90;99.90
17639;DHT22;8938;53.546;9.954;2023-09-18T03:31:15;22.90;99.90
17639;DHT22;8938;53.546;9.954;2023-09-18T03:33:41;22.80;99.90
17639;DHT22;8938;53.546;9.954;2023-09-18T03:36:06;22.80;99.90
17639;DHT22;8938;53.546;9.954;2023-09-18T03:38:33;22.80;99.90
17639;DHT22;8938;53.546;9.954;2023-09-18T03:41:00;22.80;99.90
17639;DHT22;8938;53.546;9.954;2023-09-18T03:43:26;22.80;99.90
17639;DHT22;8938;53.546;9.954;2023-09-18T03:45:52;22.90;99.90
17639;DHT22;8938;53.546;9.954;2023-09-18T03:48:17;22.80;99.90
17639;DHT22;8938;53.546;9.954;2023-09-18T03:50:43;22.80;99.90
17639;DHT22;8938;53.546;9.954;2023-09-18T03:53:09;22.80;99.90
17639;DHT22;8938;53.546;9.954;2023-09-18T03:55:35;22.80;99.90
17639;DHT22;8938;53.546;9.954;2023-09-18T03:58:00;22.80;99.90
17639;DHT22;8938;53.546;9.954;2023-09-18T04:00:26;22.80;99.90
17639;DHT22;8938;53.546;9.954;2023-09-18T04:02:52;22.80;99.90
17639;DHT22;8938;53.546;9.954;2023-09-18T04:05:17;22.90;99.90
17639;DHT22;8938;53.546;9.954;2023-09-18T04:07:44;22.70;99.90
17639;DHT22;8938;53.546;9.954;2023-09-18T04:10:12;22.60;99.90
17639;DHT22;8938;53.546;9.954;2023-09-18T04:12:44;22.60;99.90
17639;DHT22;8938;53.546;9.954;2023-09-18T04:15:13;22.60;99.90
17639;DHT22;8938;53.546;9.954;2023-09-18T04:17:39;22.60;99.90
17639;DHT22;8938;53.546;9.954;2023-09-18T04:20:05;22.50;99.90
17639;DHT22;8938;53.546;9.954;2023-09-18T04:22:31;22.50;99.90
17639;DHT22;8938;53.546;9.954;2023-09-18T04:24:56;22.50;99.90
17639;DHT22;8938;53.546;9.954;2023-09-18T04:27:22;22.50;99.90
17639;DHT22;8938;53.546;9.954;2023-09-18T04:29:48;22.50;99.90
17639;DHT22;8938;53.546;9.954;2023-09-18T04:32:13;22.60;99.90
17639;DHT22;8938;53.546;9.954;2023-09-18T04:34:39;22.40;99.90
17639;DHT22;8938;53.546;9.954;2023-09-18T04:37:05;22.40;99.90
17639;DHT22;8938;53.546;9.954;2023-09-18T04:39:30;22.40;99.90
17639;DHT22;8938;53.546;9.954;2023-09-18T04:42:00;22.40;99.90
17639;DHT22;8938;53.546;9.954;2023-09-18T04:44:26;22.40;99.90
17639;DHT22;8938;53.546;9.954;2023-09-18T04:46:52;22.30;99.90
17639;DHT22;8938;53.546;9.954;2023-09-18T04:49:17;22.30;99.90
17639;DHT22;8938;53.546;9.954;2023-09-18T04:51:43;22.30;99.90
17639;DHT22;8938;53.546;9.954;2023-09-18T04:54:09;22.30;99.90
17639;DHT22;8938;53.546;9.954;2023-09-18T04:56:34;22.30;99.90
17639;DHT22;8938;53.546;9.954;2023-09-18T04:59:00;22.30;99.90
17639;DHT22;8938;53.546;9.954;2023-09-18T05:01:25;22.30;99.90
17639;DHT22;8938;53.546;9.954;2023-09-18T05:03:52;22.30;99.90
17639;DHT22;8938;53.546;9.954;2023-09-18T05:06:17;22.30;99.90
17639;DHT22;8938;53.546;9.954;2023-09-18T05:08:44;22.30;99.90
17639;DHT22;8938;53.546;9.954;2023-09-18T05:11:09;22.30;99.90
17639;DHT22;8938;53.546;9.954;2023-09-18T05:13:35;22.30;99.90
17639;DHT22;8938;53.546;9.954;2023-09-18T05:16:00;22.30;99.90
17639;DHT22;8938;53.546;9.954;2023-09-18T05:18:26;22.30;99.90
17639;DHT22;8938;53.546;9.954;2023-09-18T05:20:52;22.40;99.90
17639;DHT22;8938;53.546;9.954;2023-09-18T05:23:17;22.30;99.90
17639;DHT22;8938;53.546;9.954;2023-09-18T05:25:44;22.40;99.90
17639;DHT22;8938;53.546;9.954;2023-09-18T05:28:10;22.60;99.90
17639;DHT22;8938;53.546;9.954;2023-09-18T05:30:36;22.60;99.90
17639;DHT22;8938;53.546;9.954;2023-09-18T05:33:05;22.70;99.90
17639;DHT22;8938;53.546;9.954;2023-09-18T05:35:32;22.80;99.90
17639;DHT22;8938;53.546;9.954;2023-09-18T05:37:58;22.80;99.90
17639;DHT22;8938;53.546;9.954;2023-09-18T05:40:25;22.80;99.90
17639;DHT22;8938;53.546;9.954;2023-09-18T05:42:54;22.70;99.90
17639;DHT22;8938;53.546;9.954;2023-09-18T05:45:20;22.60;99.90
17639;DHT22;8938;53.546;9.954;2023-09-18T05:47:45;22.60;99.90
17639;DHT22;8938;53.546;9.954;2023-09-18T05:50:12;22.60;99.90
17639;DHT22;8938;53.546;9.954;2023-09-18T05:52:42;22.60;99.90
17639;DHT22;8938;53.546;9.954;2023-09-18T05:55:08;22.70;99.90
17639;DHT22;8938;53.546;9.954;2023-09-18T05:57:34;22.60;99.90
17639;DHT22;8938;53.546;9.954;2023-09-18T06:00:00;22.60;99.90
17639;DHT22;8938;53.546;9.954;2023-09-18T06:02:26;22.70;99.90
17639;DHT22;8938;53.546;9.954;2023-09-18T06:04:56;22.90;99.90
17639;DHT22;8938;53.546;9.954;2023-09-18T06:07:24;23.00;99.90
17639;DHT22;8938;53.546;9.954;2023-09-18T06:09:50;22.80;99.90
17639;DHT22;8938;53.546;9.954;2023-09-18T06:12:16;22.80;99.90
17639;DHT22;8938;53.546;9.954;2023-09-18T06:14:41;22.80;99.90
17639;DHT22;8938;53.546;9.954;2023-09-18T06:17:08;22.80;99.90
17639;DHT22;8938;53.546;9.954;2023-09-18T06:19:34;22.80;99.90
17639;DHT22;8938;53.546;9.954;2023-09-18T06:22:00;22.80;99.90
17639;DHT22;8938;53.546;9.954;2023-09-18T06:24:26;22.90;99.90
17639;DHT22;8938;53.546;9.954;2023-09-18T06:26:51;23.10;99.90
17639;DHT22;8938;53.546;9.954;2023-09-18T06:29:18;23.10;99.90
17639;DHT22;8938;53.546;9.954;2023-09-18T06:31:44;23.20;99.90
17639;DHT22;8938;53.546;9.954;2023-09-18T06:34:09;23.10;99.90
17639;DHT22;8938;53.546;9.954;2023-09-18T06:36:35;22.90;99.90
17639;DHT22;8938;53.546;9.954;2023-09-18T06:39:00;22.80;99.90
17639;DHT22;8938;53.546;9.954;2023-09-18T06:41:26;22.90;99.90
17639;DHT22;8938;53.546;9.954;2023-09-18T06:43:51;22.80;99.90
17639;DHT22;8938;53.546;9.954;2023-09-18T06:46:17;22.90;99.90
17639;DHT22;8938;53.546;9.954;2023-09-18T06:48:43;23.00;99.90
17639;DHT22;8938;53.546;9.954;2023-09-18T06:51:11;23.00;99.90
17639;DHT22;8938;53.546;9.954;2023-09-18T06:53:36;23.10;99.90
17639;DHT22;8938;53.546;9.954;2023-09-18T06:56:02;23.00;99.90
17639;DHT22;8938;53.546;9.954;2023-09-18T06:58:27;23.10;99.90
17639;DHT22;8938;53.546;9.954;2023-09-18T07:00:53;23.20;99.90
17639;DHT22;8938;53.546;9.954;2023-09-18T07:03:18;23.30;99.90
17639;DHT22;8938;53.546;9.954;2023-09-18T07:05:44;23.40;99.90
17639;DHT22;8938;53.546;9.954;2023-09-18T07:08:11;23.40;99.90
17639;DHT22;8938;53.546;9.954;2023-09-18T07:10:39;23.50;99.90
17639;DHT22;8938;53.546;9.954;2023-09-18T07:13:05;23.50;99.90
17639;DHT22;8938;53.546;9.954;2023-09-18T07:15:30;23.60;99.90
17639;DHT22;8938;53.546;9.954;2023-09-18T07:17:56;23.70;99.90
17639;DHT22;8938;53.546;9.954;2023-09-18T07:20:22;23.60;99.90
17639;DHT22;8938;53.546;9.954;2023-09-18T07:22:49;23.70;99.90
17639;DHT22;8938;53.546;9.954;2023-09-18T07:25:16;23.80;99.90
17639;DHT22;8938;53.546;9.954;2023-09-18T07:27:42;23.80;99.90
17639;DHT22;8938;53.546;9.954;2023-09-18T07:30:11;24.00;99.90
17639;DHT22;8938;53.546;9.954;2023-09-18T07:32:40;23.90;99.90
17639;DHT22;8938;53.546;9.954;2023-09-18T07:35:09;24.20;99.90
17639;DHT22;8938;53.546;9.954;2023-09-18T07:37:35;24.10;99.90
17639;DHT22;8938;53.546;9.954;2023-09-18T07:40:05;24.40;99.90
17639;DHT22;8938;53.546;9.954;2023-09-18T07:42:31;24.20;99.90
17639;DHT22;8938;53.546;9.954;2023-09-18T07:44:57;24.20;99.90
17639;DHT22;8938;53.546;9.954;2023-09-18T07:47:22;24.20;99.90
17639;DHT22;8938;53.546;9.954;2023-09-18T07:49:48;24.20;99.90
17639;DHT22;8938;53.546;9.954;2023-09-18T07:52:14;24.30;99.90
17639;DHT22;8938;53.546;9.954;2023-09-18T07:54:40;24.30;99.90
17639;DHT22;8938;53.546;9.954;2023-09-18T07:57:06;24.40;99.90
17639;DHT22;8938;53.546;9.954;2023-09-18T07:59:37;24.50;99.90
17639;DHT22;8938;53.546;9.954;2023-09-18T08:02:04;24.30;99.90
17639;DHT22;8938;53.546;9.954;2023-09-18T08:04:33;24.30;99.90
17639;DHT22;8938;53.546;9.954;2023-09-18T08:06:59;24.20;99.90
17639;DHT22;8938;53.546;9.954;2023-09-18T08:09:25;24.40;99.90
17639;DHT22;8938;53.546;9.954;2023-09-18T08:11:51;24.40;99.90
17639;DHT22;8938;53.546;9.954;2023-09-18T08:14:21;24.40;99.90
17639;DHT22;8938;53.546;9.954;2023-09-18T08:16:47;24.50;99.90
17639;DHT22;8938;53.546;9.954;2023-09-18T08:19:15;24.60;99.90
17639;DHT22;8938;53.546;9.954;2023-09-18T08:21:42;24.60;99.90
17639;DHT22;8938;53.546;9.954;2023-09-18T08:24:08;24.60;99.90
17639;DHT22;8938;53.546;9.954;2023-09-18T08:26:33;24.60;99.90
17639;DHT22;8938;53.546;9.954;2023-09-18T08:28:59;24.60;99.90
17639;DHT22;8938;53.546;9.954;2023-09-18T08:31:24;24.60;99.90
17639;DHT22;8938;53.546;9.954;2023-09-18T08:33:50;24.60;99.90
17639;DHT22;8938;53.546;9.954;2023-09-18T08:36:16;24.70;99.90
17639;DHT22;8938;53.546;9.954;2023-09-18T08:38:42;24.60;99.90
17639;DHT22;8938;53.546;9.954;2023-09-18T08:41:10;24.60;99.90
17639;DHT22;8938;53.546;9.954;2023-09-18T08:43:37;24.70;99.90
17639;DHT22;8938;53.546;9.954;2023-09-18T08:46:04;24.70;99.90
17639;DHT22;8938;53.546;9.954;2023-09-18T08:48:30;24.60;99.90
17639;DHT22;8938;53.546;9.954;2023-09-18T08:51:05;24.70;99.90
17639;DHT22;8938;53.546;9.954;2023-09-18T08:53:32;24.60;99.90
17639;DHT22;8938;53.546;9.954;2023-09-18T08:55:59;24.70;99.90
17639;DHT22;8938;53.546;9.954;2023-09-18T08:58:28;24.60;99.90
17639;DHT22;8938;53.546;9.954;2023-09-18T09:00:54;24.70;99.90
17639;DHT22;8938;53.546;9.954;2023-09-18T09:03:20;24.80;99.90
17639;DHT22;8938;53.546;9.954;2023-09-18T09:05:45;25.00;99.90
17639;DHT22;8938;53.546;9.954;2023-09-18T09:08:11;25.10;99.90
17639;DHT22;8938;53.546;9.954;2023-09-18T09:10:37;25.10;99.90
17639;DHT22;8938;53.546;9.954;2023-09-18T09:13:03;25.10;99.90
17639;DHT22;8938;53.546;9.954;2023-09-18T09:15:33;25.10;99.90
17639;DHT22;8938;53.546;9.954;2023-09-18T09:18:05;25.20;99.90
17639;DHT22;8938;53.546;9.954;2023-09-18T09:20:31;25.30;99.90
17639;DHT22;8938;53.546;9.954;2023-09-18T09:23:01;25.50;99.90
17639;DHT22;8938;53.546;9.954;2023-09-18T09:25:29;25.60;99.90
17639;DHT22;8938;53.546;9.954;2023-09-18T09:28:00;26.20;99.90
17639;DHT22;8938;53.546;9.954;2023-09-18T09:30:28;26.30;99.90
17639;DHT22;8938;53.546;9.954;2023-09-18T09:32:55;26.50;99.90
17639;DHT22;8938;53.546;9.954;2023-09-18T09:35:25;26.70;99.90
17639;DHT22;8938;53.546;9.954;2023-09-18T09:37:57;26.70;99.90
17639;DHT22;8938;53.546;9.954;2023-09-18T09:40:24;26.70;99.90
17639;DHT22;8938;53.546;9.954;2023-09-18T09:42:55;26.70;99.90
17639;DHT22;8938;53.546;9.954;2023-09-18T09:45:27;26.70;99.90
17639;DHT22;8938;53.546;9.954;2023-09-18T09:47:54;26.70;99.90
17639;DHT22;8938;53.546;9.954;2023-09-18T09:50:20;26.70;99.90
17639;DHT22;8938;53.546;9.954;2023-09-18T09:52:50;26.60;99.90
17639;DHT22;8938;53.546;9.954;2023-09-18T09:57:50;26.60;99.90
17639;DHT22;8938;53.546;9.954;2023-09-18T10:00:16;26.70;99.90
17639;DHT22;8938;53.546;9.954;2023-09-18T10:02:54;26.80;99.90
17639;DHT22;8938;53.546;9.954;2023-09-18T10:05:23;26.80;99.90
17639;DHT22;8938;53.546;9.954;2023-09-18T10:07:50;26.80;99.90
17639;DHT22;8938;53.546;9.954;2023-09-18T10:10:16;26.90;99.90
17639;DHT22;8938;53.546;9.954;2023-09-18T10:12:42;26.90;99.90
17639;DHT22;8938;53.546;9.954;2023-09-18T10:15:13;26.90;99.90
17639;DHT22;8938;53.546;9.954;2023-09-18T10:17:43;26.80;99.90
17639;DHT22;8938;53.546;9.954;2023-09-18T10:20:12;26.80;99.90
17639;DHT22;8938;53.546;9.954;2023-09-18T10:22:51;26.80;99.90
17639;DHT22;8938;53.546;9.954;2023-09-18T10:25:20;26.80;99.90
17639;DHT22;8938;53.546;9.954;2023-09-18T10:27:47;26.90;99.90
17639;DHT22;8938;53.546;9.954;2023-09-18T10:30:34;26.90;99.90
17639;DHT22;8938;53.546;9.954;2023-09-18T10:33:02;26.90;99.90
17639;DHT22;8938;53.546;9.954;2023-09-18T10:35:29;27.00;99.90
17639;DHT22;8938;53.546;9.954;2023-09-18T10:37:54;27.10;99.90
17639;DHT22;8938;53.546;9.954;2023-09-18T10:40:21;27.10;99.90
17639;DHT22;8938;53.546;9.954;2023-09-18T10:42:48;27.10;99.90
17639;DHT22;8938;53.546;9.954;2023-09-18T10:45:15;27.00;99.90
17639;DHT22;8938;53.546;9.954;2023-09-18T10:47:46;27.10;99.90
17639;DHT22;8938;53.546;9.954;2023-09-18T10:50:22;27.00;99.90
17639;DHT22;8938;53.546;9.954;2023-09-18T10:52:49;27.00;99.90
17639;DHT22;8938;53.546;9.954;2023-09-18T10:55:14;27.10;99.90
17639;DHT22;8938;53.546;9.954;2023-09-18T10:57:56;27.20;99.90
17639;DHT22;8938;53.546;9.954;2023-09-18T11:00:25;27.30;99.90
17639;DHT22;8938;53.546;9.954;2023-09-18T11:02:53;27.40;99.90
17639;DHT22;8938;53.546;9.954;2023-09-18T11:05:32;27.40;99.90
17639;DHT22;8938;53.546;9.954;2023-09-18T11:10:59;27.70;99.90
17639;DHT22;8938;53.546;9.954;2023-09-18T11:13:31;27.80;99.90
17639;DHT22;8938;53.546;9.954;2023-09-18T11:21:32;27.60;99.90
17639;DHT22;8938;53.546;9.954;2023-09-18T11:24:05;27.50;99.90
17639;DHT22;8938;53.546;9.954;2023-09-18T11:26:33;27.50;99.90
17639;DHT22;8938;53.546;9.954;2023-09-18T11:29:00;27.50;99.90
17639;DHT22;8938;53.546;9.954;2023-09-18T11:31:48;27.50;99.90
17639;DHT22;8938;53.546;9.954;2023-09-18T11:34:26;27.40;99.90
17639;DHT22;8938;53.546;9.954;2023-09-18T11:36:53;27.50;99.90
17639;DHT22;8938;53.546;9.954;2023-09-18T11:39:39;27.50;99.90
17639;DHT22;8938;53.546;9.954;2023-09-18T11:42:12;27.50;99.90
17639;DHT22;8938;53.546;9.954;2023-09-18T11:44:38;27.60;99.90
17639;DHT22;8938;53.546;9.954;2023-09-18T11:47:09;27.60;99.90
17639;DHT22;8938;53.546;9.954;2023-09-18T11:49:38;27.60;99.90
17639;DHT22;8938;53.546;9.954;2023-09-18T11:52:07;27.60;99.90
17639;DHT22;8938;53.546;9.954;2023-09-18T11:54:33;27.50;99.90
17639;DHT22;8938;53.546;9.954;2023-09-18T11:57:05;27.30;99.90
17639;DHT22;8938;53.546;9.954;2023-09-18T11:59:36;27.30;99.90
17639;DHT22;8938;53.546;9.954;2023-09-18T12:02:02;27.40;99.90
17639;DHT22;8938;53.546;9.954;2023-09-18T12:04:31;27.30;99.90
17639;DHT22;8938;53.546;9.954;2023-09-18T12:06:58;27.30;99.90
17639;DHT22;8938;53.546;9.954;2023-09-18T12:09:27;27.30;99.90
17639;DHT22;8938;53.546;9.954;2023-09-18T12:11:53;27.30;99.90
17639;DHT22;8938;53.546;9.954;2023-09-18T12:14:21;27.30;99.90
17639;DHT22;8938;53.546;9.954;2023-09-18T12:16:47;27.30;99.90
17639;DHT22;8938;53.546;9.954;2023-09-18T12:19:18;27.30;99.90
17639;DHT22;8938;53.546;9.954;2023-09-18T12:21:46;27.30;99.90
17639;DHT22;8938;53.546;9.954;2023-09-18T12:24:21;27.40;99.90
17639;DHT22;8938;53.546;9.954;2023-09-18T12:26:47;27.40;99.90
17639;DHT22;8938;53.546;9.954;2023-09-18T12:29:13;27.60;99.90
17639;DHT22;8938;53.546;9.954;2023-09-18T12:31:38;27.50;99.90
17639;DHT22;8938;53.546;9.954;2023-09-18T12:34:04;27.50;99.90
17639;DHT22;8938;53.546;9.954;2023-09-18T12:36:32;27.40;99.90
17639;DHT22;8938;53.546;9.954;2023-09-18T12:38:59;27.40;99.90
17639;DHT22;8938;53.546;9.954;2023-09-18T12:41:32;27.50;99.90
17639;DHT22;8938;53.546;9.954;2023-09-18T12:43:58;27.70;99.90
17639;DHT22;8938;53.546;9.954;2023-09-18T12:46:23;27.60;99.90
17639;DHT22;8938;53.546;9.954;2023-09-18T12:48:49;27.60;99.90
17639;DHT22;8938;53.546;9.954;2023-09-18T12:51:14;27.70;99.90
17639;DHT22;8938;53.546;9.954;2023-09-18T12:53:41;27.70;99.90
17639;DHT22;8938;53.546;9.954;2023-09-18T12:56:09;27.90;99.90
17639;DHT22;8938;53.546;9.954;2023-09-18T12:58:35;28.10;99.90
17639;DHT22;8938;53.546;9.954;2023-09-18T13:01:05;28.20;99.90
17639;DHT22;8938;53.546;9.954;2023-09-18T13:03:42;28.00;99.90
17639;DHT22;8938;53.546;9.954;2023-09-18T13:06:15;28.10;99.90
17639;DHT22;8938;53.546;9.954;2023-09-18T13:08:43;28.00;99.90
17639;DHT22;8938;53.546;9.954;2023-09-18T13:11:09;28.00;99.90
17639;DHT22;8938;53.546;9.954;2023-09-18T13:13:37;27.90;99.90
17639;DHT22;8938;53.546;9.954;2023-09-18T13:16:07;28.00;99.90
17639;DHT22;8938;53.546;9.954;2023-09-18T13:18:34;28.20;99.90
17639;DHT22;8938;53.546;9.954;2023-09-18T13:21:00;28.40;99.90
17639;DHT22;8938;53.546;9.954;2023-09-18T13:23:32;28.40;99.90
17639;DHT22;8938;53.546;9.954;2023-09-18T13:26:05;28.20;99.90
17639;DHT22;8938;53.546;9.954;2023-09-18T13:28:31;28.20;99.90
17639;DHT22;8938;53.546;9.954;2023-09-18T13:30:59;28.00;99.90
17639;DHT22;8938;53.546;9.954;2023-09-18T13:33:25;27.90;99.90
17639;DHT22;8938;53.546;9.954;2023-09-18T13:35:51;27.70;99.90
17639;DHT22;8938;53.546;9.954;2023-09-18T13:38:18;27.60;99.90
17639;DHT22;8938;53.546;9.954;2023-09-18T13:40:46;27.60;99.90
17639;DHT22;8938;53.546;9.954;2023-09-18T13:43:12;27.50;99.90
17639;DHT22;8938;53.546;9.954;2023-09-18T13:45:41;27.50;99.90
17639;DHT22;8938;53.546;9.954;2023-09-18T13:48:07;27.60;99.90
17639;DHT22;8938;53.546;9.954;2023-09-18T13:50:34;27.60;99.90
17639;DHT22;8938;53.546;9.954;2023-09-18T13:53:01;27.60;99.90
17639;DHT22;8938;53.546;9.954;2023-09-18T13:55:29;27.50;99.90
17639;DHT22;8938;53.546;9.954;2023-09-18T13:57:54;27.50;99.90
17639;DHT22;8938;53.546;9.954;2023-09-18T14:00:21;27.40;99.90
17639;DHT22;8938;53.546;9.954;2023-09-18T14:02:47;27.50;99.90
17639;DHT22;8938;53.546;9.954;2023-09-18T14:05:12;27.40;99.90
17639;DHT22;8938;53.546;9.954;2023-09-18T14:07:38;27.30;99.90
17639;DHT22;8938;53.546;9.954;2023-09-18T14:10:06;27.20;99.90
17639;DHT22;8938;53.546;9.954;2023-09-18T14:12:32;27.10;99.90
17639;DHT22;8938;53.546;9.954;2023-09-18T14:14:58;27.10;99.90
17639;DHT22;8938;53.546;9.954;2023-09-18T14:17:25;27.10;99.90
17639;DHT22;8938;53.546;9.954;2023-09-18T14:19:50;27.10;99.90
17639;DHT22;8938;53.546;9.954;2023-09-18T14:22:19;27.20;99.90
17639;DHT22;8938;53.546;9.954;2023-09-18T14:24:45;27.20;99.90
17639;DHT22;8938;53.546;9.954;2023-09-18T14:27:11;27.10;99.90
17639;DHT22;8938;53.546;9.954;2023-09-18T14:29:38;27.10;99.90
17639;DHT22;8938;53.546;9.954;2023-09-18T14:32:03;27.10;99.90
17639;DHT22;8938;53.546;9.954;2023-09-18T14:34:29;27.20;99.90
17639;DHT22;8938;53.546;9.954;2023-09-18T14:36:56;27.30;99.90
17639;DHT22;8938;53.546;9.954;2023-09-18T14:39:21;27.40;99.90
17639;DHT22;8938;53.546;9.954;2023-09-18T14:41:47;27.50;99.90
17639;DHT22;8938;53.546;9.954;2023-09-18T14:44:13;27.60;99.90
17639;DHT22;8938;53.546;9.954;2023-09-18T14:46:38;27.70;99.90
17639;DHT22;8938;53.546;9.954;2023-09-18T14:49:05;27.60;99.90
17639;DHT22;8938;53.546;9.954;2023-09-18T14:51:32;27.70;99.90
17639;DHT22;8938;53.546;9.954;2023-09-18T14:53:59;27.60;99.90
17639;DHT22;8938;53.546;9.954;2023-09-18T14:56:24;27.30;99.90
17639;DHT22;8938;53.546;9.954;2023-09-18T14:58:50;27.30;99.90
17639;DHT22;8938;53.546;9.954;2023-09-18T15:01:20;27.10;99.90
17639;DHT22;8938;53.546;9.954;2023-09-18T15:03:46;27.00;99.90
17639;DHT22;8938;53.546;9.954;2023-09-18T15:06:14;27.00;99.90
17639;DHT22;8938;53.546;9.954;2023-09-18T15:08:39;27.00;99.90
17639;DHT22;8938;53.546;9.954;2023-09-18T15:11:05;27.10;99.90
17639;DHT22;8938;53.546;9.954;2023-09-18T15:13:31;27.10;99.90
17639;DHT22;8938;53.546;9.954;2023-09-18T15:15:57;27.20;99.90
17639;DHT22;8938;53.546;9.954;2023-09-18T15:18:23;27.20;99.90
17639;DHT22;8938;53.546;9.954;2023-09-18T15:20:49;27.20;99.90
17639;DHT22;8938;53.546;9.954;2023-09-18T15:23:22;27.30;99.90
17639;DHT22;8938;53.546;9.954;2023-09-18T15:25:49;27.40;99.90
17639;DHT22;8938;53.546;9.954;2023-09-18T15:28:16;27.30;99.90
17639;DHT22;8938;53.546;9.954;2023-09-18T15:30:43;27.30;99.90
17639;DHT22;8938;53.546;9.954;2023-09-18T15:33:08;27.30;99.90
17639;DHT22;8938;53.546;9.954;2023-09-18T15:35:34;27.30;99.90
17639;DHT22;8938;53.546;9.954;2023-09-18T15:37:59;27.30;99.90
17639;DHT22;8938;53.546;9.954;2023-09-18T15:40:26;27.30;99.90
17639;DHT22;8938;53.546;9.954;2023-09-18T15:42:52;27.40;99.90
17639;DHT22;8938;53.546;9.954;2023-09-18T15:45:18;27.40;99.90
17639;DHT22;8938;53.546;9.954;2023-09-18T15:47:43;27.50;99.90
17639;DHT22;8938;53.546;9.954;2023-09-18T15:50:10;27.30;99.90
17639;DHT22;8938;53.546;9.954;2023-09-18T15:52:36;27.30;99.90
17639;DHT22;8938;53.546;9.954;2023-09-18T15:55:03;27.20;99.90